sensor_id;sensor_type;location;lat;lon;timestamp;pressure;altitude;pressure_sealevel;temperature;humidity
56671;BME280;42545;50.054;8.306;2023-02-14T00:01:49;101942.53;;;2.14;100.00
56671;BME280;42545;50.054;8.306;2023-02-14T00:04:17;101937.22;;;2.02;100.00
56671;BME280;42545;50.054;8.306;2023-02-14T00:06:45;101933.38;;;1.87;100.00
56671;BME280;42545;50.054;8.306;2023-02-14T00:09:14;101935.50;;;1.70;100.00
56671;BME280;42545;50.054;8.306;2023-02-14T00:11:41;101935.81;;;1.53;100.00
56671;BME280;42545;50.054;8.306;2023-02-14T00:14:10;101933.63;;;1.37;100.00
56671;BME280;42545;50.054;8.306;2023-02-14T00:16:57;101926.63;;;1.15;100.00
56671;BME280;42545;50.054;8.306;2023-02-14T00:19:24;101917.16;;;0.95;100.00
56671;BME280;42545;50.054;8.306;2023-02-14T00:21:50;101933.28;;;0.91;100.00
56671;BME280;42545;50.054;8.306;2023-02-14T00:24:19;101933.38;;;0.83;100.00
56671;BME280;42545;50.054;8.306;2023-02-14T00:26:47;101930.16;;;0.75;100.00
56671;BME280;42545;50.054;8.306;2023-02-14T00:29:18;101932.06;;;0.67;100.00
56671;BME280;42545;50.054;8.306;2023-02-14T00:31:45;101932.31;;;0.60;100.00
56671;BME280;42545;50.054;8.306;2023-02-14T00:34:13;101930.22;;;0.56;100.00
56671;BME280;42545;50.054;8.306;2023-02-14T00:36:41;101935.16;;;0.53;100.00
56671;BME280;42545;50.054;8.306;2023-02-14T00:39:09;101938.91;;;0.46;100.00
56671;BME280;42545;50.054;8.306;2023-02-14T00:41:36;101937.31;;;0.38;100.00
56671;BME280;42545;50.054;8.306;2023-02-14T00:44:04;101938.50;;;0.31;100.00
56671;BME280;42545;50.054;8.306;2023-02-14T00:46:32;101945.72;;;0.25;100.00
56671;BME280;42545;50.054;8.306;2023-02-14T00:48:59;101954.53;;;0.17;100.00
56671;BME280;42545;50.054;8.306;2023-02-14T00:51:27;101945.78;;;0.06;100.00
56671;BME280;42545;50.054;8.306;2023-02-14T00:53:54;101948.63;;;-0.01;100.00
56671;BME280;42545;50.054;8.306;2023-02-14T00:56:22;101954.03;;;-0.08;100.00
56671;BME280;42545;50.054;8.306;2023-02-14T00:58:49;101952.84;;;-0.12;100.00
56671;BME280;42545;50.054;8.306;2023-02-14T01:01:18;101946.84;;;-0.21;100.00
56671;BME280;42545;50.054;8.306;2023-02-14T01:03:47;101943.19;;;-0.23;100.00
56671;BME280;42545;50.054;8.306;2023-02-14T01:06:13;101946.56;;;-0.24;100.00
56671;BME280;42545;50.054;8.306;2023-02-14T01:08:40;101945.94;;;-0.22;100.00
56671;BME280;42545;50.054;8.306;2023-02-14T01:11:08;101938.28;;;-0.20;100.00
56671;BME280;42545;50.054;8.306;2023-02-14T01:13:35;101938.16;;;-0.22;100.00
56671;BME280;42545;50.054;8.306;2023-02-14T01:16:05;101942.16;;;-0.25;100.00
56671;BME280;42545;50.054;8.306;2023-02-14T01:18:34;101941.22;;;-0.26;100.00
56671;BME280;42545;50.054;8.306;2023-02-14T01:21:18;101942.41;;;-0.22;100.00
56671;BME280;42545;50.054;8.306;2023-02-14T01:23:47;101939.81;;;-0.22;100.00
56671;BME280;42545;50.054;8.306;2023-02-14T01:26:15;101940.88;;;-0.20;100.00
56671;BME280;42545;50.054;8.306;2023-02-14T01:28:42;101943.59;;;-0.18;100.00
56671;BME280;42545;50.054;8.306;2023-02-14T01:31:12;101940.09;;;-0.19;100.00
56671;BME280;42545;50.054;8.306;2023-02-14T01:33:40;101944.53;;;-0.18;100.00
56671;BME280;42545;50.054;8.306;2023-02-14T01:36:23;101940.09;;;-0.19;100.00
56671;BME280;42545;50.054;8.306;2023-02-14T01:38:52;101938.41;;;-0.18;100.00
56671;BME280;42545;50.054;8.306;2023-02-14T01:41:19;101937.22;;;-0.22;100.00
56671;BME280;42545;50.054;8.306;2023-02-14T01:43:52;101943.72;;;-0.17;100.00
56671;BME280;42545;50.054;8.306;2023-02-14T01:46:20;101946.31;;;-0.17;100.00
56671;BME280;42545;50.054;8.306;2023-02-14T01:48:47;101942.97;;;-0.16;100.00
56671;BME280;42545;50.054;8.306;2023-02-14T01:51:15;101947.13;;;-0.18;100.00
56671;BME280;42545;50.054;8.306;2023-02-14T01:53:46;101946.31;;;-0.17;100.00
56671;BME280;42545;50.054;8.306;2023-02-14T01:56:17;101946.31;;;-0.17;100.00
56671;BME280;42545;50.054;8.306;2023-02-14T01:58:45;101939.47;;;-0.16;100.00
56671;BME280;42545;50.054;8.306;2023-02-14T02:01:20;101943.72;;;-0.17;100.00
56671;BME280;42545;50.054;8.306;2023-02-14T02:03:49;101935.69;;;-0.20;100.00
56671;BME280;42545;50.054;8.306;2023-02-14T02:06:22;101939.94;;;-0.21;100.00
56671;BME280;42545;50.054;8.306;2023-02-14T02:09:03;101935.13;;;-0.26;100.00
56671;BME280;42545;50.054;8.306;2023-02-14T02:11:32;101937.81;;;-0.35;100.00
56671;BME280;42545;50.054;8.306;2023-02-14T02:14:00;101942.16;;;-0.44;100.00
56671;BME280;42545;50.054;8.306;2023-02-14T02:16:44;101938.25;;;-0.49;100.00
56671;BME280;42545;50.054;8.306;2023-02-14T02:19:39;101940.41;;;-0.54;100.00
56671;BME280;42545;50.054;8.306;2023-02-14T02:22:24;101933.91;;;-0.59;100.00
56671;BME280;42545;50.054;8.306;2023-02-14T02:25:06;101926.47;;;-0.65;100.00
56671;BME280;42545;50.054;8.306;2023-02-14T02:27:59;101928.91;;;-0.66;100.00
56671;BME280;42545;50.054;8.306;2023-02-14T02:30:39;101925.94;;;-0.71;100.00
56671;BME280;42545;50.054;8.306;2023-02-14T02:33:32;101927.47;;;-0.73;100.00
56671;BME280;42545;50.054;8.306;2023-02-14T02:36:36;101924.88;;;-0.73;100.00
56671;BME280;42545;50.054;8.306;2023-02-14T02:39:15;101925.63;;;-0.74;100.00
56671;BME280;42545;50.054;8.306;2023-02-14T02:41:52;101918.75;;;-0.73;100.00
56671;BME280;42545;50.054;8.306;2023-02-14T02:44:32;101923.03;;;-0.74;100.00
56671;BME280;42545;50.054;8.306;2023-02-14T02:47:06;101904.69;;;-0.86;100.00
56671;BME280;42545;50.054;8.306;2023-02-14T02:49:40;101918.72;;;-0.84;100.00
56671;BME280;42545;50.054;8.306;2023-02-14T02:52:34;101925.44;;;-0.86;100.00
56671;BME280;42545;50.054;8.306;2023-02-14T02:55:24;101925.63;;;-0.93;100.00
56671;BME280;42545;50.054;8.306;2023-02-14T02:58:15;101924.00;;;-1.01;100.00
56671;BME280;42545;50.054;8.306;2023-02-14T03:00:41;101922.50;;;-1.08;100.00
56671;BME280;42545;50.054;8.306;2023-02-14T03:03:09;101919.72;;;-1.20;100.00
56671;BME280;42545;50.054;8.306;2023-02-14T03:05:52;101923.53;;;-1.25;100.00
56671;BME280;42545;50.054;8.306;2023-02-14T03:08:20;101924.19;;;-1.27;100.00
56671;BME280;42545;50.054;8.306;2023-02-14T03:10:47;101918.56;;;-1.32;100.00
56671;BME280;42545;50.054;8.306;2023-02-14T03:16:30;101930.44;;;-1.34;100.00
56671;BME280;42545;50.054;8.306;2023-02-14T03:19:16;101918.88;;;-1.38;100.00
56671;BME280;42545;50.054;8.306;2023-02-14T03:21:52;101923.91;;;-1.39;100.00
56671;BME280;42545;50.054;8.306;2023-02-14T03:24:24;101928.03;;;-1.41;100.00
56671;BME280;42545;50.054;8.306;2023-02-14T03:26:58;101935.66;;;-1.43;100.00
56671;BME280;42545;50.054;8.306;2023-02-14T03:29:30;101924.09;;;-1.46;100.00
56671;BME280;42545;50.054;8.306;2023-02-14T03:32:07;101927.16;;;-1.42;100.00
56671;BME280;42545;50.054;8.306;2023-02-14T03:34:44;101923.91;;;-1.39;100.00
56671;BME280;42545;50.054;8.306;2023-02-14T03:37:14;101923.47;;;-1.35;100.00
56671;BME280;42545;50.054;8.306;2023-02-14T03:39:51;101931.50;;;-1.32;100.00
56671;BME280;42545;50.054;8.306;2023-02-14T03:42:22;101918.56;;;-1.32;100.00
56671;BME280;42545;50.054;8.306;2023-02-14T03:44:51;101930.91;;;-1.29;100.00
56671;BME280;42545;50.054;8.306;2023-02-14T03:47:23;101919.59;;;-1.30;100.00
56671;BME280;42545;50.054;8.306;2023-02-14T03:49:57;101928.00;;;-1.32;100.00
56671;BME280;42545;50.054;8.306;2023-02-14T03:52:26;101922.19;;;-1.30;100.00
56671;BME280;42545;50.054;8.306;2023-02-14T03:54:59;101928.75;;;-1.33;100.00
56671;BME280;42545;50.054;8.306;2023-02-14T03:57:31;101932.44;;;-1.31;100.00
56671;BME280;42545;50.054;8.306;2023-02-14T04:00:02;101936.25;;;-1.37;100.00
56671;BME280;42545;50.054;8.306;2023-02-14T04:02:33;101945.22;;;-1.33;100.00
56671;BME280;42545;50.054;8.306;2023-02-14T04:05:07;101947.53;;;-1.36;100.00
56671;BME280;42545;50.054;8.306;2023-02-14T04:07:44;101947.53;;;-1.36;100.00
56671;BME280;42545;50.054;8.306;2023-02-14T04:10:13;101944.03;;;-1.37;100.00
56671;BME280;42545;50.054;8.306;2023-02-14T04:12:40;101948.44;;;-1.36;100.00
56671;BME280;42545;50.054;8.306;2023-02-14T04:15:07;101942.19;;;-1.38;100.00
56671;BME280;42545;50.054;8.306;2023-02-14T04:17:34;101944.03;;;-1.37;100.00
56671;BME280;42545;50.054;8.306;2023-02-14T04:20:18;101946.56;;;-1.28;100.00
56671;BME280;42545;50.054;8.306;2023-02-14T04:22:45;101948.84;;;-1.22;100.00
56671;BME280;42545;50.054;8.306;2023-02-14T04:25:13;101946.16;;;-1.13;100.00
56671;BME280;42545;50.054;8.306;2023-02-14T04:27:40;101943.38;;;-1.06;100.00
56671;BME280;42545;50.054;8.306;2023-02-14T04:30:08;101961.78;;;-0.94;100.00
56671;BME280;42545;50.054;8.306;2023-02-14T04:32:37;101946.78;;;-0.88;100.00
56671;BME280;42545;50.054;8.306;2023-02-14T04:35:04;101945.53;;;-0.83;100.00
56671;BME280;42545;50.054;8.306;2023-02-14T04:37:32;101948.53;;;-0.79;100.00
56671;BME280;42545;50.054;8.306;2023-02-14T04:39:59;101945.31;;;-0.76;100.00
56671;BME280;42545;50.054;8.306;2023-02-14T04:42:27;101948.97;;;-0.74;100.00
56671;BME280;42545;50.054;8.306;2023-02-14T04:44:54;101954.16;;;-0.74;100.00
56671;BME280;42545;50.054;8.306;2023-02-14T04:47:21;101953.41;;;-0.73;100.00
56671;BME280;42545;50.054;8.306;2023-02-14T04:49:47;101952.31;;;-0.75;100.00
56671;BME280;42545;50.054;8.306;2023-02-14T04:52:14;101955.69;;;-0.76;100.00
56671;BME280;42545;50.054;8.306;2023-02-14T04:54:41;101957.38;;;-0.76;100.00
56671;BME280;42545;50.054;8.306;2023-02-14T04:57:08;101953.59;;;-0.80;100.00
56671;BME280;42545;50.054;8.306;2023-02-14T04:59:36;101948.66;;;-0.77;100.00
56671;BME280;42545;50.054;8.306;2023-02-14T05:02:02;101952.19;;;-0.76;100.00
56671;BME280;42545;50.054;8.306;2023-02-14T05:04:29;101955.97;;;-0.73;100.00
56671;BME280;42545;50.054;8.306;2023-02-14T05:06:55;101953.25;;;-0.74;100.00
56671;BME280;42545;50.054;8.306;2023-02-14T05:09:22;101952.31;;;-0.75;100.00
56671;BME280;42545;50.054;8.306;2023-02-14T05:11:52;101948.41;;;-0.80;100.00
56671;BME280;42545;50.054;8.306;2023-02-14T05:14:19;101952.31;;;-0.75;100.00
56671;BME280;42545;50.054;8.306;2023-02-14T05:16:48;101956.88;;;-0.72;100.00
56671;BME280;42545;50.054;8.306;2023-02-14T05:19:14;101954.69;;;-0.68;100.00
56671;BME280;42545;50.054;8.306;2023-02-14T05:21:41;101950.44;;;-0.67;100.00
56671;BME280;42545;50.054;8.306;2023-02-14T05:24:07;101945.25;;;-0.67;100.00
56671;BME280;42545;50.054;8.306;2023-02-14T05:26:36;101943.56;;;-0.67;100.00
56671;BME280;42545;50.054;8.306;2023-02-14T05:29:02;101947.72;;;-0.69;100.00
56671;BME280;42545;50.054;8.306;2023-02-14T05:31:29;101954.59;;;-0.69;100.00
56671;BME280;42545;50.054;8.306;2023-02-14T05:33:58;101951.84;;;-0.71;100.00
56671;BME280;42545;50.054;8.306;2023-02-14T05:36:25;101947.78;;;-0.78;100.00
56671;BME280;42545;50.054;8.306;2023-02-14T05:38:54;101948.41;;;-0.80;100.00
56671;BME280;42545;50.054;8.306;2023-02-14T05:41:21;101944.63;;;-0.84;100.00
56671;BME280;42545;50.054;8.306;2023-02-14T05:43:47;101943.69;;;-0.84;100.00
56671;BME280;42545;50.054;8.306;2023-02-14T05:46:14;101942.63;;;-0.86;100.00
56671;BME280;42545;50.054;8.306;2023-02-14T05:48:42;101938.41;;;-0.86;100.00
56671;BME280;42545;50.054;8.306;2023-02-14T05:51:11;101938.03;;;-0.80;100.00
56671;BME280;42545;50.054;8.306;2023-02-14T05:53:38;101940.75;;;-0.79;100.00
56671;BME280;42545;50.054;8.306;2023-02-14T05:56:05;101941.19;;;-0.74;100.00
56671;BME280;42545;50.054;8.306;2023-02-14T05:58:32;101937.19;;;-0.70;100.00
56671;BME280;42545;50.054;8.306;2023-02-14T06:00:59;101937.63;;;-0.66;100.00
56671;BME280;42545;50.054;8.306;2023-02-14T06:03:26;101941.38;;;-0.62;100.00
56671;BME280;42545;50.054;8.306;2023-02-14T06:05:55;101939.38;;;-0.56;100.00
56671;BME280;42545;50.054;8.306;2023-02-14T06:08:26;101941.31;;;-0.53;100.00
56671;BME280;42545;50.054;8.306;2023-02-14T06:10:53;101941.91;;;-0.47;100.00
56671;BME280;42545;50.054;8.306;2023-02-14T06:13:22;101938.00;;;-0.42;100.00
56671;BME280;42545;50.054;8.306;2023-02-14T06:15:49;101939.34;;;-0.37;100.00
56671;BME280;42545;50.054;8.306;2023-02-14T06:18:16;101945.72;;;-0.33;100.00
56671;BME280;42545;50.054;8.306;2023-02-14T06:20:43;101946.00;;;-0.30;100.00
56671;BME280;42545;50.054;8.306;2023-02-14T06:23:09;101952.38;;;-0.27;100.00
56671;BME280;42545;50.054;8.306;2023-02-14T06:25:39;101944.59;;;-0.27;100.00
56671;BME280;42545;50.054;8.306;2023-02-14T06:28:06;101951.88;;;-0.23;100.00
56671;BME280;42545;50.054;8.306;2023-02-14T06:30:32;101952.78;;;-0.22;100.00
56671;BME280;42545;50.054;8.306;2023-02-14T06:33:00;101952.03;;;-0.21;100.00
56671;BME280;42545;50.054;8.306;2023-02-14T06:35:28;101962.69;;;-0.18;100.00
56671;BME280;42545;50.054;8.306;2023-02-14T06:37:56;101953.22;;;-0.17;100.00
56671;BME280;42545;50.054;8.306;2023-02-14T06:40:23;101957.63;;;-0.16;100.00
56671;BME280;42545;50.054;8.306;2023-02-14T06:42:50;101961.91;;;-0.17;100.00
56671;BME280;42545;50.054;8.306;2023-02-14T06:45:17;101972.28;;;-0.17;100.00
56671;BME280;42545;50.054;8.306;2023-02-14T06:47:44;101963.44;;;-0.19;100.00
56671;BME280;42545;50.054;8.306;2023-02-14T06:50:11;101962.53;;;-0.20;100.00
56671;BME280;42545;50.054;8.306;2023-02-14T06:52:39;101959.94;;;-0.20;100.00
56671;BME280;42545;50.054;8.306;2023-02-14T06:55:09;101957.88;;;-0.24;100.00
56671;BME280;42545;50.054;8.306;2023-02-14T06:57:37;101961.50;;;-0.22;100.00
56671;BME280;42545;50.054;8.306;2023-02-14T07:00:07;101962.25;;;-0.23;100.00
56671;BME280;42545;50.054;8.306;2023-02-14T07:02:34;101961.34;;;-0.23;100.00
56671;BME280;42545;50.054;8.306;2023-02-14T07:05:00;101956.94;;;-0.24;100.00
56671;BME280;42545;50.054;8.306;2023-02-14T07:07:27;101963.66;;;-0.26;100.00
56671;BME280;42545;50.054;8.306;2023-02-14T07:09:54;101965.97;;;-0.29;100.00
56671;BME280;42545;50.054;8.306;2023-02-14T07:12:20;101971.94;;;-0.30;100.00
56671;BME280;42545;50.054;8.306;2023-02-14T07:14:47;101972.44;;;-0.34;100.00
56671;BME280;42545;50.054;8.306;2023-02-14T07:17:15;101976.09;;;-0.32;100.00
56671;BME280;42545;50.054;8.306;2023-02-14T07:19:42;101976.84;;;-0.33;100.00
56671;BME280;42545;50.054;8.306;2023-02-14T07:22:09;101968.66;;;-0.38;100.00
56671;BME280;42545;50.054;8.306;2023-02-14T07:24:36;101981.63;;;-0.38;100.00
56671;BME280;42545;50.054;8.306;2023-02-14T07:27:03;101981.78;;;-0.36;100.00
56671;BME280;42545;50.054;8.306;2023-02-14T07:29:31;101985.28;;;-0.36;100.00
56671;BME280;42545;50.054;8.306;2023-02-14T07:31:57;101987.06;;;-0.35;100.00
56671;BME280;42545;50.054;8.306;2023-02-14T07:34:26;101985.69;;;-0.31;100.00
56671;BME280;42545;50.054;8.306;2023-02-14T07:36:52;101986.72;;;-0.29;100.00
56671;BME280;42545;50.054;8.306;2023-02-14T07:39:19;101990.41;;;-0.27;100.00
56671;BME280;42545;50.054;8.306;2023-02-14T07:41:46;101981.31;;;-0.22;100.00
56671;BME280;42545;50.054;8.306;2023-02-14T07:44:13;101978.13;;;-0.20;100.00
56671;BME280;42545;50.054;8.306;2023-02-14T07:46:40;101983.59;;;-0.16;100.00
56671;BME280;42545;50.054;8.306;2023-02-14T07:49:07;101982.16;;;-0.13;100.00
56671;BME280;42545;50.054;8.306;2023-02-14T07:51:35;101986.56;;;-0.12;100.00
56671;BME280;42545;50.054;8.306;2023-02-14T07:54:02;101994.78;;;-0.07;100.00
56671;BME280;42545;50.054;8.306;2023-02-14T07:56:29;101973.75;;;-0.10;100.00
56671;BME280;42545;50.054;8.306;2023-02-14T07:58:56;101983.00;;;-0.04;100.00
56671;BME280;42545;50.054;8.306;2023-02-14T08:01:23;101981.94;;;-0.06;100.00
56671;BME280;42545;50.054;8.306;2023-02-14T08:03:50;101982.22;;;-0.03;100.00
56671;BME280;42545;50.054;8.306;2023-02-14T08:06:18;101992.75;;;-0.01;100.00
56671;BME280;42545;50.054;8.306;2023-02-14T08:08:47;101990.16;;;-0.01;100.00
56671;BME280;42545;50.054;8.306;2023-02-14T08:11:14;101989.50;;;0.02;100.00
56671;BME280;42545;50.054;8.306;2023-02-14T08:14:01;101986.13;;;0.03;100.00
56671;BME280;42545;50.054;8.306;2023-02-14T08:16:28;101983.84;;;0.06;100.00
56671;BME280;42545;50.054;8.306;2023-02-14T08:18:56;101974.06;;;0.03;100.00
56671;BME280;42545;50.054;8.306;2023-02-14T08:21:23;101978.88;;;0.09;100.00
56671;BME280;42545;50.054;8.306;2023-02-14T08:23:51;101979.03;;;0.10;100.00
56671;BME280;42545;50.054;8.306;2023-02-14T08:26:18;101987.09;;;0.13;100.00
56671;BME280;42545;50.054;8.306;2023-02-14T08:28:46;101979.19;;;0.12;100.00
56671;BME280;42545;50.054;8.306;2023-02-14T08:31:21;101977.63;;;0.14;100.00
56671;BME280;42545;50.054;8.306;2023-02-14T08:33:48;101972.44;;;0.14;100.00
56671;BME280;42545;50.054;8.306;2023-02-14T08:36:15;101979.59;;;0.16;100.00
56671;BME280;42545;50.054;8.306;2023-02-14T08:38:42;101966.34;;;0.13;100.00
56671;BME280;42545;50.054;8.306;2023-02-14T08:41:10;101977.09;;;0.18;100.00
56671;BME280;42545;50.054;8.306;2023-02-14T08:43:37;101978.81;;;0.17;100.00
56671;BME280;42545;50.054;8.306;2023-02-14T08:46:05;101979.72;;;0.18;100.00
56671;BME280;42545;50.054;8.306;2023-02-14T08:48:33;101977.25;;;0.19;100.00
56671;BME280;42545;50.054;8.306;2023-02-14T08:51:03;101970.25;;;0.18;100.00
56671;BME280;42545;50.054;8.306;2023-02-14T08:53:31;101971.00;;;0.17;100.00
56671;BME280;42545;50.054;8.306;2023-02-14T08:56:02;101978.03;;;0.18;100.00
56671;BME280;42545;50.054;8.306;2023-02-14T08:58:31;101974.41;;;0.16;100.00
56671;BME280;42545;50.054;8.306;2023-02-14T09:01:00;101985.69;;;0.17;100.00
56671;BME280;42545;50.054;8.306;2023-02-14T09:03:26;101980.34;;;0.15;100.00
56671;BME280;42545;50.054;8.306;2023-02-14T09:05:53;101980.34;;;0.15;100.00
56671;BME280;42545;50.054;8.306;2023-02-14T09:08:20;101981.13;;;0.14;100.00
56671;BME280;42545;50.054;8.306;2023-02-14T09:10:46;101982.94;;;0.15;100.00
56671;BME280;42545;50.054;8.306;2023-02-14T09:13:14;101983.25;;;0.18;100.00
56671;BME280;42545;50.054;8.306;2023-02-14T09:15:42;101985.69;;;0.17;100.00
56671;BME280;42545;50.054;8.306;2023-02-14T09:18:09;101989.19;;;0.17;100.00
56671;BME280;42545;50.054;8.306;2023-02-14T09:20:36;101985.03;;;0.19;100.00
56671;BME280;42545;50.054;8.306;2023-02-14T09:23:02;101984.00;;;0.17;100.00
56671;BME280;42545;50.054;8.306;2023-02-14T09:25:29;101978.94;;;0.19;100.00
56671;BME280;42545;50.054;8.306;2023-02-14T09:27:57;101962.56;;;0.10;100.00
56671;BME280;42545;50.054;8.306;2023-02-14T09:30:24;101980.75;;;0.20;100.00
56671;BME280;42545;50.054;8.306;2023-02-14T09:32:54;101979.09;;;0.21;100.00
56671;BME280;42545;50.054;8.306;2023-02-14T09:35:20;101971.44;;;0.22;100.00
56671;BME280;42545;50.054;8.306;2023-02-14T09:37:50;101978.44;;;0.23;100.00
56671;BME280;42545;50.054;8.306;2023-02-14T09:40:34;101968.84;;;0.22;100.00
56671;BME280;42545;50.054;8.306;2023-02-14T09:43:08;101979.75;;;0.28;100.00
56671;BME280;42545;50.054;8.306;2023-02-14T09:45:37;101977.91;;;0.27;100.00
56671;BME280;42545;50.054;8.306;2023-02-14T09:48:10;101974.56;;;0.28;100.00
56671;BME280;42545;50.054;8.306;2023-02-14T09:50:41;101975.59;;;0.30;100.00
56671;BME280;42545;50.054;8.306;2023-02-14T09:53:17;101961.72;;;0.30;100.00
56671;BME280;42545;50.054;8.306;2023-02-14T09:55:51;101969.00;;;0.34;100.00
56671;BME280;42545;50.054;8.306;2023-02-14T09:58:23;101968.50;;;0.38;100.00
56671;BME280;42545;50.054;8.306;2023-02-14T10:00:57;101966.03;;;0.40;100.00
56671;BME280;42545;50.054;8.306;2023-02-14T10:03:42;101969.53;;;0.40;100.00
56671;BME280;42545;50.054;8.306;2023-02-14T10:06:22;101968.75;;;0.41;100.00
56671;BME280;42545;50.054;8.306;2023-02-14T10:09:00;101972.25;;;0.42;100.00
56671;BME280;42545;50.054;8.306;2023-02-14T10:11:28;101975.78;;;0.42;100.00
56671;BME280;42545;50.054;8.306;2023-02-14T10:13:58;101970.97;;;0.47;100.00
56671;BME280;42545;50.054;8.306;2023-02-14T10:16:30;101971.88;;;0.47;100.00
56671;BME280;42545;50.054;8.306;2023-02-14T10:19:03;101978.78;;;0.47;100.00
56671;BME280;42545;50.054;8.306;2023-02-14T10:21:36;101972.25;;;0.42;100.00
56671;BME280;42545;50.054;8.306;2023-02-14T10:24:12;101974.38;;;0.46;100.00
56671;BME280;42545;50.054;8.306;2023-02-14T10:26:39;101972.81;;;0.48;100.00
56671;BME280;42545;50.054;8.306;2023-02-14T10:29:12;101970.72;;;0.44;100.00
56671;BME280;42545;50.054;8.306;2023-02-14T10:31:43;101962.91;;;0.44;100.00
56671;BME280;42545;50.054;8.306;2023-02-14T10:34:19;101965.66;;;0.45;100.00
56671;BME280;42545;50.054;8.306;2023-02-14T10:36:57;101957.09;;;0.46;100.00
56671;BME280;42545;50.054;8.306;2023-02-14T10:39:52;101935.53;;;0.47;100.00
56671;BME280;42545;50.054;8.306;2023-02-14T10:42:22;101945.91;;;0.47;100.00
56671;BME280;42545;50.054;8.306;2023-02-14T10:44:56;101954.78;;;0.49;100.00
56671;BME280;42545;50.054;8.306;2023-02-14T10:47:37;101955.03;;;0.52;100.00
56671;BME280;42545;50.054;8.306;2023-02-14T10:50:17;101952.69;;;0.55;100.00
56671;BME280;42545;50.054;8.306;2023-02-14T10:52:49;101947.78;;;0.59;100.00
56671;BME280;42545;50.054;8.306;2023-02-14T10:55:24;101950.50;;;0.60;100.00
56671;BME280;42545;50.054;8.306;2023-02-14T10:57:55;101950.25;;;0.67;100.00
56671;BME280;42545;50.054;8.306;2023-02-14T11:00:25;101943.25;;;0.66;100.00
56671;BME280;42545;50.054;8.306;2023-02-14T11:02:56;101936.34;;;0.67;100.00
56671;BME280;42545;50.054;8.306;2023-02-14T11:05:31;101929.47;;;0.67;100.00
56671;BME280;42545;50.054;8.306;2023-02-14T11:08:00;101925.97;;;0.67;100.00
56671;BME280;42545;50.054;8.306;2023-02-14T11:10:29;101916.75;;;0.70;100.00
56671;BME280;42545;50.054;8.306;2023-02-14T11:12:57;101912.84;;;0.75;100.00
56671;BME280;42545;50.054;8.306;2023-02-14T11:15:28;101918.94;;;0.76;100.00
56671;BME280;42545;50.054;8.306;2023-02-14T11:18:19;101913.22;;;0.80;100.00
56671;BME280;42545;50.054;8.306;2023-02-14T11:20:58;101917.53;;;0.80;100.00
56671;BME280;42545;50.054;8.306;2023-02-14T11:23:31;101908.16;;;0.82;100.00
56671;BME280;42545;50.054;8.306;2023-02-14T11:25:59;101911.69;;;0.82;100.00
56671;BME280;42545;50.054;8.306;2023-02-14T11:28:28;101908.84;;;0.79;100.00
56671;BME280;42545;50.054;8.306;2023-02-14T11:30:55;101907.13;;;0.80;100.00
56671;BME280;42545;50.054;8.306;2023-02-14T11:33:28;101899.59;;;0.83;100.00
56671;BME280;42545;50.054;8.306;2023-02-14T11:35:56;101894.94;;;0.79;100.00
56671;BME280;42545;50.054;8.306;2023-02-14T11:38:29;101898.94;;;0.85;100.00
56671;BME280;42545;50.054;8.306;2023-02-14T11:40:58;101888.56;;;0.85;100.00
56671;BME280;42545;50.054;8.306;2023-02-14T11:43:30;101885.31;;;0.88;100.00
56671;BME280;42545;50.054;8.306;2023-02-14T11:46:07;101889.19;;;0.93;100.00
56671;BME280;42545;50.054;8.306;2023-02-14T11:48:35;101880.38;;;0.91;100.00
56671;BME280;42545;50.054;8.306;2023-02-14T11:51:05;101879.59;;;0.92;100.00
56671;BME280;42545;50.054;8.306;2023-02-14T11:53:42;101882.56;;;0.96;100.00
56671;BME280;42545;50.054;8.306;2023-02-14T11:56:10;101879.19;;;0.98;100.00
56671;BME280;42545;50.054;8.306;2023-02-14T11:58:39;101880.38;;;1.01;100.00
56671;BME280;42545;50.054;8.306;2023-02-14T12:01:10;101888.31;;;1.03;100.00
56671;BME280;42545;50.054;8.306;2023-02-14T12:03:43;101873.88;;;1.06;100.00
56671;BME280;42545;50.054;8.306;2023-02-14T12:06:12;101870.75;;;1.10;100.00
56671;BME280;42545;50.054;8.306;2023-02-14T12:08:49;101871.00;;;1.13;100.00
56671;BME280;42545;50.054;8.306;2023-02-14T12:11:19;101866.03;;;1.17;100.00
56671;BME280;42545;50.054;8.306;2023-02-14T12:13:51;101865.41;;;1.19;100.00
56671;BME280;42545;50.054;8.306;2023-02-14T12:16:21;101862.41;;;1.25;100.00
56671;BME280;42545;50.054;8.306;2023-02-14T12:18:52;101861.84;;;1.29;100.00
56671;BME280;42545;50.054;8.306;2023-02-14T12:21:35;101859.25;;;1.29;100.00
56671;BME280;42545;50.054;8.306;2023-02-14T12:24:11;101856.41;;;1.26;100.00
56671;BME280;42545;50.054;8.306;2023-02-14T12:26:48;101852.75;;;1.24;100.00
56671;BME280;42545;50.054;8.306;2023-02-14T12:29:19;101830.97;;;1.11;100.00
56671;BME280;42545;50.054;8.306;2023-02-14T12:31:48;101844.97;;;1.24;100.00
56671;BME280;42545;50.054;8.306;2023-02-14T12:34:16;101841.72;;;1.26;100.00
56671;BME280;42545;50.054;8.306;2023-02-14T12:37:00;101836.38;;;1.25;100.00
56671;BME280;42545;50.054;8.306;2023-02-14T12:39:34;101831.81;;;1.22;100.00
56671;BME280;42545;50.054;8.306;2023-02-14T12:42:14;101837.56;;;1.28;100.00
56671;BME280;42545;50.054;8.306;2023-02-14T12:44:53;101830.78;;;1.30;100.00
56671;BME280;42545;50.054;8.306;2023-02-14T12:47:30;101832.84;;;1.34;100.00
56671;BME280;42545;50.054;8.306;2023-02-14T12:50:21;101826.75;;;1.34;100.00
56671;BME280;42545;50.054;8.306;2023-02-14T12:53:22;101817.50;;;1.38;100.00
56671;BME280;42545;50.054;8.306;2023-02-14T12:56:02;101817.84;;;1.42;100.00
56671;BME280;42545;50.054;8.306;2023-02-14T12:58:41;101815.38;;;1.44;100.00
56671;BME280;42545;50.054;8.306;2023-02-14T13:01:42;101809.69;;;1.48;100.00
56671;BME280;42545;50.054;8.306;2023-02-14T13:04:43;101811.34;;;1.47;100.00
56671;BME280;42545;50.054;8.306;2023-02-14T13:07:24;101800.03;;;1.47;100.00
56671;BME280;42545;50.054;8.306;2023-02-14T13:09:57;101804.06;;;1.53;100.00